Time;durP1;ratioP1;P1;durP2;ratioP2;P2;SDS_P1;SDS_P2;PMS_P1;PMS_P2;Temp;Humidity;BMP_temperature;BMP_pressure;BME280_temperature;BME280_humidity;BME280_pressure;Samples;Min_cycle;Max_cycle;Signal;HPM_P1;HPM_P2
2023/10/08 00:03:22;;;;;;;;;;;;;;;27.36;43.04;95250.91;4930787;29;7271;-54
2023/10/08 00:06:12;;;;;;;;;;;;;;;27.35;43.17;95243.88;4930644;29;7009;-54
2023/10/08 00:08:59;;;;;;;;;;;;;;;27.33;43.12;95243.59;4937409;28;7257;-54
2023/10/08 00:11:30;;;;;;;;;;;;;;;27.33;43.47;95240.84;4987177;28;9498;-54
2023/10/08 00:14:08;;;;;;;;;;;;;;;27.34;42.99;95245.09;4997220;28;7267;-54
2023/10/08 00:16:38;;;;;;;;;;;;;;;27.34;43.16;95244.38;4990749;28;7256;-53
2023/10/08 00:19:17;;;;;;;;;;;;;;;27.32;43.25;95242.09;4999158;28;7258;-55
2023/10/08 00:21:45;;;;;;;;;;;;;;;27.32;43.22;95233.78;5008634;28;7000;-54
2023/10/08 00:24:13;;;;;;;;;;;;;;;27.34;43.31;95242.34;4998639;28;8789;-54
2023/10/08 00:26:44;;;;;;;;;;;;;;;27.32;43.18;95244.84;4994082;28;7257;-54
2023/10/08 00:29:31;;;;;;;;;;;;;;;27.33;43.46;95243.59;4999692;28;8714;-54
2023/10/08 00:32:17;;;;;;;;;;;;;;;27.31;43.29;95239.84;4988099;28;9096;-54
2023/10/08 00:34:59;;;;;;;;;;;;;;;27.28;43.08;95227.00;4991745;28;6991;-54
2023/10/08 00:37:26;;;;;;;;;;;;;;;27.30;43.29;95227.25;5036497;28;9503;-54
2023/10/08 00:39:56;;;;;;;;;;;;;;;27.29;43.37;95225.78;5050649;28;8782;-55
2023/10/08 00:42:28;;;;;;;;;;;;;;;27.31;43.18;95226.03;5049813;28;9411;-54
2023/10/08 00:45:04;;;;;;;;;;;;;;;27.30;43.25;95219.72;5091627;28;7059;-56
2023/10/08 00:47:34;;;;;;;;;;;;;;;27.30;43.38;95213.44;5074008;28;8771;-56
2023/10/08 00:50:06;;;;;;;;;;;;;;;27.31;43.45;95223.25;5056158;28;7031;-57
2023/10/08 00:52:57;;;;;;;;;;;;;;;27.30;43.41;95216.22;5061030;28;7333;-56
2023/10/08 00:55:28;;;;;;;;;;;;;;;27.30;43.16;95222.50;5038750;28;9047;-56
2023/10/08 00:58:09;;;;;;;;;;;;;;;27.30;43.19;95224.50;5047838;28;6979;-56
2023/10/08 01:00:41;;;;;;;;;;;;;;;27.30;43.15;95221.75;5072414;28;7178;-56
2023/10/08 01:03:14;;;;;;;;;;;;;;;27.29;43.32;95220.25;5051510;28;9091;-56
2023/10/08 01:05:46;;;;;;;;;;;;;;;27.26;43.58;95210.19;5069690;28;7014;-56
2023/10/08 01:11:16;;;;;;;;;;;;;;;27.28;42.91;95225.00;5060894;28;9138;-56
2023/10/08 01:13:45;;;;;;;;;;;;;;;27.25;43.33;95212.19;5066596;28;8168;-57
2023/10/08 01:16:18;;;;;;;;;;;;;;;27.28;43.19;95219.47;5089378;28;7274;-56
2023/10/08 01:19:20;;;;;;;;;;;;;;;27.28;43.31;95221.50;5060237;28;8950;-57
2023/10/08 01:21:47;;;;;;;;;;;;;;;27.27;43.39;95215.22;5022957;28;7120;-56
2023/10/08 01:25:05;;;;;;;;;;;;;;;27.27;43.11;95220.75;5017076;28;7244;-57
2023/10/08 01:27:40;;;;;;;;;;;;;;;27.26;43.18;95224.00;5003602;28;7247;-56
2023/10/08 01:30:20;;;;;;;;;;;;;;;27.25;43.51;95222.50;5011549;28;7377;-56
2023/10/08 01:32:47;;;;;;;;;;;;;;;27.24;43.15;95221.00;5032339;28;7212;-56
2023/10/08 01:35:33;;;;;;;;;;;;;;;27.24;43.28;95219.00;5006299;28;9096;-56
2023/10/08 01:38:33;;;;;;;;;;;;;;;27.25;43.25;95219.75;5009112;28;7252;-57
2023/10/08 01:41:05;;;;;;;;;;;;;;;27.20;43.14;95210.19;5018282;28;7130;-56
2023/10/08 01:43:31;;;;;;;;;;;;;;;27.23;43.06;95211.94;5023336;28;8854;-56
2023/10/08 01:45:58;;;;;;;;;;;;;;;27.24;43.33;95205.19;5008229;28;7059;-56
2023/10/08 01:48:37;;;;;;;;;;;;;;;27.23;43.47;95203.66;5019036;28;8425;-56
2023/10/08 01:51:08;;;;;;;;;;;;;;;27.22;43.47;95202.16;5028203;28;9208;-56
2023/10/08 01:53:36;;;;;;;;;;;;;;;27.22;43.29;95199.41;5019789;28;8956;-61
2023/10/08 01:56:11;;;;;;;;;;;;;;;27.20;43.45;95199.16;5022258;28;7302;-61
2023/10/08 01:58:46;;;;;;;;;;;;;;;27.22;43.00;95190.34;5040906;28;7281;-61
2023/10/08 02:01:16;;;;;;;;;;;;;;;27.20;43.39;95185.34;5067239;28;8735;-61
2023/10/08 02:04:04;;;;;;;;;;;;;;;27.18;43.48;95182.34;5083734;28;6958;-61
2023/10/08 02:06:41;;;;;;;;;;;;;;;27.20;43.10;95184.59;5064345;28;7638;-61
2023/10/08 02:09:25;;;;;;;;;;;;;;;27.19;43.14;95189.34;5054828;28;7196;-61
2023/10/08 02:11:54;;;;;;;;;;;;;;;27.18;43.34;95181.56;5080625;28;7261;-61
2023/10/08 02:14:22;;;;;;;;;;;;;;;27.19;43.24;95185.81;5071896;28;9034;-61
2023/10/08 02:17:05;;;;;;;;;;;;;;;27.20;43.21;95181.81;5088131;28;8663;-61
2023/10/08 02:19:42;;;;;;;;;;;;;;;27.19;43.23;95183.06;5075995;28;7601;-61
2023/10/08 02:22:24;;;;;;;;;;;;;;;27.17;42.66;95180.81;5045750;28;6993;-61
2023/10/08 02:25:47;;;;;;;;;;;;;;;27.18;43.09;95192.63;5054527;28;7080;-61
2023/10/08 02:28:25;;;;;;;;;;;;;;;27.16;43.14;95173.81;5070454;28;7197;-61
2023/10/08 02:31:08;;;;;;;;;;;;;;;27.16;43.39;95171.03;5074738;28;7000;-61
2023/10/08 02:33:39;;;;;;;;;;;;;;;27.13;43.21;95171.28;5071964;28;7065;-61
2023/10/08 02:36:26;;;;;;;;;;;;;;;27.15;43.27;95171.53;5061984;28;7449;-61
2023/10/08 02:38:52;;;;;;;;;;;;;;;27.14;43.22;95175.56;5042588;28;9177;-61
2023/10/08 02:41:29;;;;;;;;;;;;;;;27.11;43.12;95166.25;5062824;28;8948;-61
2023/10/08 02:44:23;;;;;;;;;;;;;;;27.14;43.25;95172.78;5063156;28;7402;-61
2023/10/08 02:46:51;;;;;;;;;;;;;;;27.14;43.17;95170.03;5047545;28;9592;-61
2023/10/08 02:49:25;;;;;;;;;;;;;;;27.10;43.47;95155.72;5044407;28;7031;-61
2023/10/08 02:51:58;;;;;;;;;;;;;;;27.11;43.18;95152.44;5055033;28;7713;-61
2023/10/08 02:54:36;;;;;;;;;;;;;;;27.12;43.27;95164.25;5071508;28;6986;-61
2023/10/08 02:57:04;;;;;;;;;;;;;;;27.12;43.56;95162.22;5079260;28;6970;-61
2023/10/08 02:59:39;;;;;;;;;;;;;;;27.10;43.44;95167.50;5048504;28;7912;-61
2023/10/08 03:02:21;;;;;;;;;;;;;;;27.10;43.51;95164.00;5097320;28;9431;-61
2023/10/08 03:04:59;;;;;;;;;;;;;;;27.11;43.29;95165.50;5092172;28;9569;-62
2023/10/08 03:07:41;;;;;;;;;;;;;;;27.10;43.10;95156.47;5062684;28;7243;-62
2023/10/08 03:10:33;;;;;;;;;;;;;;;27.10;43.28;95159.22;5042177;28;10053;-62
2023/10/08 03:13:10;;;;;;;;;;;;;;;27.09;43.00;95163.25;5057351;28;7224;-62
2023/10/08 03:18:36;;;;;;;;;;;;;;;27.08;43.39;95175.53;5063865;28;8766;-62
2023/10/08 03:21:43;;;;;;;;;;;;;;;27.08;43.20;95175.53;5053269;28;8998;-62
2023/10/08 03:24:30;;;;;;;;;;;;;;;27.10;43.46;95175.78;5070164;28;8723;-62
2023/10/08 03:27:41;;;;;;;;;;;;;;;27.09;43.49;95179.06;5055928;28;7007;-62
2023/10/08 03:30:00;;;;;;;;;;;;;;;27.08;43.33;95178.31;5070679;28;7250;-62
2023/10/08 03:32:35;;;;;;;;;;;;;;;27.07;43.17;95173.28;5071076;28;7400;-62
2023/10/08 03:35:04;;;;;;;;;;;;;;;27.09;43.24;95177.06;5035758;28;9302;-62
2023/10/08 03:37:45;;;;;;;;;;;;;;;27.08;43.39;95183.81;5060021;28;7622;-62
2023/10/08 03:43:46;;;;;;;;;;;;;;;27.06;43.11;95178.06;5062400;28;7918;-62
2023/10/08 03:46:24;;;;;;;;;;;;;;;27.05;43.14;95173.78;4986535;28;8786;-62
2023/10/08 03:49:04;;;;;;;;;;;;;;;27.04;42.92;95166.00;4985441;28;7145;-62
2023/10/08 03:51:38;;;;;;;;;;;;;;;27.02;43.45;95166.50;5010635;28;6985;-62
2023/10/08 03:54:29;;;;;;;;;;;;;;;27.01;43.36;95156.72;5007780;28;6976;-62
2023/10/08 03:56:56;;;;;;;;;;;;;;;27.03;43.46;95170.78;4997330;28;9181;-62
2023/10/08 03:59:31;;;;;;;;;;;;;;;27.03;43.18;95164.50;5004699;28;7258;-62
2023/10/08 04:02:15;;;;;;;;;;;;;;;27.04;43.12;95166.00;5008519;28;9287;-62
2023/10/08 04:04:57;;;;;;;;;;;;;;;27.02;43.17;95160.97;5006492;28;7188;-62
2023/10/08 04:08:05;;;;;;;;;;;;;;;27.02;43.33;95158.22;4990799;28;9010;-62
2023/10/08 04:13:21;;;;;;;;;;;;;;;26.98;43.11;95152.19;4993916;28;9037;-61
2023/10/08 04:16:19;;;;;;;;;;;;;;;27.00;43.57;95155.22;4994407;28;9087;-61
2023/10/08 04:18:55;;;;;;;;;;;;;;;27.00;43.11;95159.97;4935797;28;8783;-61
2023/10/08 04:21:42;;;;;;;;;;;;;;;27.01;43.29;95148.44;5004542;28;7230;-61
2023/10/08 04:24:09;;;;;;;;;;;;;;;27.00;43.25;95140.66;5018896;28;7248;-61
2023/10/08 04:26:35;;;;;;;;;;;;;;;27.00;43.33;95149.69;5009216;28;6998;-61
2023/10/08 04:29:02;;;;;;;;;;;;;;;26.99;43.38;95148.16;4990628;28;7284;-61
2023/10/08 04:31:43;;;;;;;;;;;;;;;26.98;43.26;95146.69;5008616;28;7236;-61
2023/10/08 04:34:15;;;;;;;;;;;;;;;26.98;43.12;95149.44;5014730;28;8724;-61
2023/10/08 04:36:46;;;;;;;;;;;;;;;26.96;43.32;95134.63;5004806;28;7190;-61
2023/10/08 04:39:21;;;;;;;;;;;;;;;26.96;43.30;95140.16;5032789;28;7335;-62
2023/10/08 04:41:53;;;;;;;;;;;;;;;26.96;43.28;95151.94;5000357;28;9119;-61
2023/10/08 04:44:31;;;;;;;;;;;;;;;26.95;43.44;95142.16;5007921;28;6989;-61
2023/10/08 04:47:04;;;;;;;;;;;;;;;26.96;43.48;95143.66;5002308;28;8847;-61
2023/10/08 04:49:45;;;;;;;;;;;;;;;26.96;43.29;95137.38;4995566;28;7002;-61
2023/10/08 04:52:14;;;;;;;;;;;;;;;26.95;43.56;95135.91;5029787;28;7287;-61
2023/10/08 04:54:50;;;;;;;;;;;;;;;26.96;43.17;95137.38;5015859;28;9066;-61
2023/10/08 04:57:21;;;;;;;;;;;;;;;26.96;43.23;95142.91;5087436;28;7420;-61
2023/10/08 04:59:50;;;;;;;;;;;;;;;26.95;42.88;95147.69;5065253;28;9021;-61
2023/10/08 05:02:20;;;;;;;;;;;;;;;26.93;43.04;95150.19;5064827;28;7068;-62
2023/10/08 05:15:36;;;;;;;;;;;;;;;26.92;43.03;95170.78;5073959;28;7144;-61
2023/10/08 05:18:23;;;;;;;;;;;;;;;26.89;43.24;95160.72;5072645;28;7072;-61
2023/10/08 05:26:20;;;;;;;;;;;;;;;26.92;43.31;95176.31;5067897;28;7276;-54
2023/10/08 05:29:00;;;;;;;;;;;;;;;26.88;43.38;95171.00;5054916;28;7269;-54
2023/10/08 05:34:18;;;;;;;;;;;;;;;26.87;43.10;95175.03;5065207;28;7245;-52
2023/10/08 05:39:55;;;;;;;;;;;;;;;26.88;42.86;95171.00;5059775;28;7245;-55
2023/10/08 05:42:46;;;;;;;;;;;;;;;26.88;43.44;95167.53;5057785;28;9073;-55
2023/10/08 05:45:33;;;;;;;;;;;;;;;26.85;43.00;95171.28;5054368;28;9229;-53
2023/10/08 05:48:15;;;;;;;;;;;;;;;26.84;43.28;95170.50;5065501;28;9322;-54
2023/10/08 05:50:55;;;;;;;;;;;;;;;26.86;43.63;95170.75;5051581;28;7377;-53
2023/10/08 05:53:43;;;;;;;;;;;;;;;26.87;43.26;95174.28;5037781;28;9067;-54
2023/10/08 05:56:28;;;;;;;;;;;;;;;26.86;43.50;95172.78;5073719;28;7235;-54
2023/10/08 05:59:17;;;;;;;;;;;;;;;26.85;43.31;95177.56;5063728;28;7511;-54
2023/10/08 06:01:46;;;;;;;;;;;;;;;26.84;43.26;95170.50;5062463;28;9148;-53
2023/10/08 06:05:20;;;;;;;;;;;;;;;26.86;43.08;95181.78;5057222;28;7452;-53
2023/10/08 06:13:06;;;;;;;;;;;;;;;26.84;43.59;95197.34;5069991;28;7502;-54
2023/10/08 06:18:27;;;;;;;;;;;;;;;26.85;42.79;95198.88;5071522;28;9250;-53
2023/10/08 06:21:00;;;;;;;;;;;;;;;26.85;43.51;95190.59;5066927;28;7273;-54
2023/10/08 06:23:35;;;;;;;;;;;;;;;26.82;43.01;95195.09;5061559;28;7214;-54
2023/10/08 06:28:38;;;;;;;;;;;;;;;26.82;42.78;95194.34;5067016;28;8774;-53
2023/10/08 06:31:17;;;;;;;;;;;;;;;26.83;43.46;95207.66;5052659;28;7239;-54
2023/10/08 06:33:48;;;;;;;;;;;;;;;26.83;43.47;95207.66;5080040;28;8819;-60
2023/10/08 06:36:16;;;;;;;;;;;;;;;26.82;43.26;95213.66;5053680;28;9102;-61
2023/10/08 06:38:53;;;;;;;;;;;;;;;26.82;43.11;95211.66;5086532;28;7256;-61
2023/10/08 06:41:28;;;;;;;;;;;;;;;26.83;43.34;95209.66;5059808;28;7241;-60
2023/10/08 06:44:03;;;;;;;;;;;;;;;26.82;43.35;95213.66;5054873;28;7132;-60
2023/10/08 06:46:36;;;;;;;;;;;;;;;26.82;43.23;95213.66;5055845;28;9111;-60
2023/10/08 06:49:11;;;;;;;;;;;;;;;26.80;43.32;95199.59;5059807;28;7233;-60
2023/10/08 06:51:43;;;;;;;;;;;;;;;26.85;43.50;95212.66;5060414;28;7267;-60
2023/10/08 06:54:13;;;;;;;;;;;;;;;26.85;43.16;95216.19;5075705;28;7288;-60
2023/10/08 06:57:13;;;;;;;;;;;;;;;26.84;43.12;95213.91;5055121;28;7346;-60
2023/10/08 06:59:42;;;;;;;;;;;;;;;26.82;43.47;95210.91;4998475;28;7219;-60
2023/10/08 07:02:09;;;;;;;;;;;;;;;26.83;43.12;95215.94;4999155;28;7639;-60
2023/10/08 07:04:47;;;;;;;;;;;;;;;26.84;43.52;95208.38;4981236;28;8806;-60
2023/10/08 07:07:18;;;;;;;;;;;;;;;26.83;43.26;95212.41;4996641;28;7340;-61
2023/10/08 07:10:03;;;;;;;;;;;;;;;26.83;43.47;95212.41;5002451;28;7947;-60
2023/10/08 07:12:46;;;;;;;;;;;;;;;26.80;43.15;95207.88;4982692;28;7010;-61
2023/10/08 07:15:20;;;;;;;;;;;;;;;26.83;43.70;95220.69;4978425;28;7414;-61
2023/10/08 07:18:09;;;;;;;;;;;;;;;26.81;43.11;95217.69;4993326;28;7393;-60
2023/10/08 07:20:41;;;;;;;;;;;;;;;26.82;43.46;95217.19;5012491;28;9120;-60
2023/10/08 07:23:25;;;;;;;;;;;;;;;26.82;43.35;95221.94;4997934;28;7208;-60
2023/10/08 07:26:46;;;;;;;;;;;;;;;26.82;43.17;95225.47;4995642;28;9459;-60
2023/10/08 07:29:35;;;;;;;;;;;;;;;26.82;43.41;95230.97;4923865;29;9214;-61
2023/10/08 07:32:30;;;;;;;;;;;;;;;26.82;43.21;95228.22;4904232;29;9087;-61
2023/10/08 07:38:11;;;;;;;;;;;;;;;26.83;43.44;95228.97;4990832;28;9129;-60
2023/10/08 07:40:44;;;;;;;;;;;;;;;26.83;43.12;95240.03;4965535;28;8856;-61
2023/10/08 07:43:12;;;;;;;;;;;;;;;26.83;43.48;95238.03;4991504;28;7225;-61
2023/10/08 07:45:45;;;;;;;;;;;;;;;26.83;43.18;95231.75;4978574;28;7002;-61
2023/10/08 07:48:29;;;;;;;;;;;;;;;26.83;42.85;95237.25;4996721;28;7235;-61
2023/10/08 07:51:06;;;;;;;;;;;;;;;26.84;43.37;95236.75;5006921;28;7240;-61
2023/10/08 07:53:56;;;;;;;;;;;;;;;26.81;43.18;95237.00;4990885;28;7994;-61
2023/10/08 07:56:31;;;;;;;;;;;;;;;26.87;43.38;95240.53;5005445;28;7301;-61
2023/10/08 07:58:59;;;;;;;;;;;;;;;26.87;43.34;95240.53;4970384;28;9475;-61
2023/10/08 08:01:37;;;;;;;;;;;;;;;26.85;43.59;95243.03;4987200;28;7457;-61
2023/10/08 08:04:33;;;;;;;;;;;;;;;26.86;43.27;95255.59;4994817;28;8727;-61
2023/10/08 08:07:04;;;;;;;;;;;;;;;26.87;42.63;95252.34;5054006;28;7316;-61
2023/10/08 08:10:10;;;;;;;;;;;;;;;26.87;43.33;95257.09;5074943;28;8784;-61
2023/10/08 08:12:37;;;;;;;;;;;;;;;26.88;43.45;95258.63;5073557;28;7249;-61
2023/10/08 08:15:17;;;;;;;;;;;;;;;26.89;43.28;95254.59;5048477;28;8325;-61
2023/10/08 08:17:47;;;;;;;;;;;;;;;26.85;43.39;95256.84;5059590;28;7039;-61
2023/10/08 08:20:34;;;;;;;;;;;;;;;26.86;43.84;95261.84;5056082;28;8983;-61
2023/10/08 08:23:16;;;;;;;;;;;;;;;26.87;43.15;95260.63;5064486;28;7417;-61
2023/10/08 08:25:46;;;;;;;;;;;;;;;26.86;43.35;95263.88;5057247;28;9167;-61
2023/10/08 08:28:20;;;;;;;;;;;;;;;26.86;43.08;95272.16;5057078;28;9376;-61
2023/10/08 08:30:55;;;;;;;;;;;;;;;26.87;43.52;95273.66;5058154;28;7090;-61
2023/10/08 08:34:19;;;;;;;;;;;;;;;26.85;43.50;95270.63;5092796;28;7148;-61
2023/10/08 08:36:46;;;;;;;;;;;;;;;26.88;43.25;95272.41;5055394;28;6993;-61
2023/10/08 08:39:32;;;;;;;;;;;;;;;26.87;43.39;95273.66;5089481;28;7378;-61
2023/10/08 08:42:04;;;;;;;;;;;;;;;26.84;43.56;95269.13;5060174;28;8885;-61
2023/10/08 08:44:46;;;;;;;;;;;;;;;26.86;43.35;95266.63;5049313;28;6950;-61
2023/10/08 08:47:41;;;;;;;;;;;;;;;26.87;43.33;95277.19;5062826;28;9033;-61
2023/10/08 08:50:17;;;;;;;;;;;;;;;26.86;43.51;95272.16;4984199;28;7161;-61
2023/10/08 08:52:45;;;;;;;;;;;;;;;26.87;43.84;95274.41;4990169;28;7275;-61
2023/10/08 08:55:14;;;;;;;;;;;;;;;26.87;43.14;95265.38;4993079;28;7206;-62
2023/10/08 08:57:46;;;;;;;;;;;;;;;26.88;43.12;95269.66;4992987;28;7068;-62
2023/10/08 09:00:32;;;;;;;;;;;;;;;26.87;43.54;95273.66;4994386;28;7041;-62
2023/10/08 09:03:13;;;;;;;;;;;;;;;26.86;43.47;95270.13;4982802;28;9400;-61
2023/10/08 09:05:40;;;;;;;;;;;;;;;26.88;43.34;95275.19;4991683;28;7449;-61
2023/10/08 09:08:09;;;;;;;;;;;;;;;26.87;43.25;95274.41;4978480;28;7332;-61
2023/10/08 09:10:41;;;;;;;;;;;;;;;26.86;43.16;95266.63;5013874;28;7390;-62
2023/10/08 09:13:23;;;;;;;;;;;;;;;26.89;43.18;95273.91;4977957;28;7156;-62
2023/10/08 09:15:57;;;;;;;;;;;;;;;26.89;43.27;95271.16;4984032;28;7120;-62
2023/10/08 09:18:34;;;;;;;;;;;;;;;26.91;43.18;95274.16;5009368;28;7299;-62
2023/10/08 09:21:26;;;;;;;;;;;;;;;26.90;43.49;95267.16;4992684;28;7189;-61
2023/10/08 09:24:08;;;;;;;;;;;;;;;26.92;43.68;95266.63;4993354;28;9544;-62
2023/10/08 09:26:39;;;;;;;;;;;;;;;26.91;43.70;95268.63;5019151;28;7222;-62
2023/10/08 09:29:14;;;;;;;;;;;;;;;26.89;43.24;95262.88;5060964;28;8986;-62
2023/10/08 09:32:09;;;;;;;;;;;;;;;26.92;43.18;95267.41;5056769;28;9145;-62
2023/10/08 09:34:36;;;;;;;;;;;;;;;26.92;43.45;95262.59;5003045;28;9149;-61
2023/10/08 09:37:11;;;;;;;;;;;;;;;26.92;43.07;95263.88;4984584;28;9219;-62
2023/10/08 09:39:41;;;;;;;;;;;;;;;26.92;43.31;95267.41;4991040;28;8696;-62
2023/10/08 09:42:11;;;;;;;;;;;;;;;26.93;43.01;95271.66;5012663;28;7758;-61
2023/10/08 09:44:39;;;;;;;;;;;;;;;26.93;42.96;95266.13;4990000;28;8882;-61
2023/10/08 09:47:06;;;;;;;;;;;;;;;26.96;43.20;95267.16;4984255;28;7254;-62
2023/10/08 09:49:42;;;;;;;;;;;;;;;26.94;42.88;95267.66;4990121;28;7262;-62
2023/10/08 09:52:36;;;;;;;;;;;;;;;26.97;43.62;95266.63;4996723;28;8429;-62
2023/10/08 09:55:10;;;;;;;;;;;;;;;27.00;43.06;95271.16;5002025;28;7323;-62
2023/10/08 09:57:39;;;;;;;;;;;;;;;26.99;43.52;95269.66;5005875;28;7226;-62
2023/10/08 10:00:14;;;;;;;;;;;;;;;27.01;43.16;95277.47;4996817;28;9203;-62
2023/10/08 10:02:43;;;;;;;;;;;;;;;27.01;43.14;95271.94;4984825;28;7321;-62
2023/10/08 10:05:12;;;;;;;;;;;;;;;27.04;43.13;95281.97;4997138;28;7097;-62
2023/10/08 10:07:44;;;;;;;;;;;;;;;27.04;43.12;95277.19;4993005;28;6979;-61
2023/10/08 10:10:34;;;;;;;;;;;;;;;27.05;43.02;95277.97;5002843;28;6995;-61
2023/10/08 10:13:11;;;;;;;;;;;;;;;27.04;42.99;95274.44;5059306;28;7072;-61
2023/10/08 10:15:39;;;;;;;;;;;;;;;27.05;43.50;95275.97;5055101;28;9058;-62
2023/10/08 10:18:18;;;;;;;;;;;;;;;27.05;42.99;95275.97;5065637;28;7107;-61
2023/10/08 10:21:26;;;;;;;;;;;;;;;27.08;43.14;95288.03;5061329;28;7022;-61
2023/10/08 10:23:53;;;;;;;;;;;;;;;27.06;42.92;95284.97;5029481;28;6993;-61
2023/10/08 10:26:40;;;;;;;;;;;;;;;27.07;42.86;95286.50;5029700;28;7233;-61
2023/10/08 10:29:14;;;;;;;;;;;;;;;27.07;43.29;95280.97;5041253;28;7315;-61
2023/10/08 10:31:49;;;;;;;;;;;;;;;27.08;42.93;95290.78;5030208;28;7857;-61
2023/10/08 10:34:18;;;;;;;;;;;;;;;27.07;42.98;95292.78;5034722;28;7207;-61
2023/10/08 10:36:54;;;;;;;;;;;;;;;27.07;43.25;95289.25;5037890;28;7450;-61
2023/10/08 10:39:33;;;;;;;;;;;;;;;27.07;43.02;95292.78;5048329;28;7154;-61
2023/10/08 10:42:20;;;;;;;;;;;;;;;27.09;42.67;95287.50;5042187;28;7688;-61
2023/10/08 10:44:53;;;;;;;;;;;;;;;27.10;43.21;95291.03;5041801;28;6964;-61
2023/10/08 10:47:46;;;;;;;;;;;;;;;27.11;43.20;95287.75;5041091;28;7279;-61
2023/10/08 10:50:26;;;;;;;;;;;;;;;27.09;43.13;95279.22;5052541;28;7360;-61
2023/10/08 10:52:53;;;;;;;;;;;;;;;27.12;43.04;95274.72;5038380;28;6986;-61
2023/10/08 10:55:34;;;;;;;;;;;;;;;27.14;43.12;95274.97;5044288;28;7963;-61
2023/10/08 10:58:14;;;;;;;;;;;;;;;27.15;42.79;95274.47;5033067;28;9095;-61
2023/10/08 11:00:49;;;;;;;;;;;;;;;27.15;42.53;95274.47;5063171;28;7379;-61
2023/10/08 11:03:17;;;;;;;;;;;;;;;27.16;43.17;95277.97;5053372;28;7257;-61
2023/10/08 11:05:48;;;;;;;;;;;;;;;27.16;43.26;95277.97;5052067;28;7276;-61
2023/10/08 11:08:18;;;;;;;;;;;;;;;27.17;42.64;95271.94;5036963;28;7245;-61
2023/10/08 11:10:58;;;;;;;;;;;;;;;27.18;42.95;95276.22;5087139;28;7538;-61
2023/10/08 11:13:38;;;;;;;;;;;;;;;27.17;43.09;95269.19;5073401;28;7354;-65
2023/10/08 11:16:14;;;;;;;;;;;;;;;27.19;43.13;95272.19;5057574;28;8211;-65
2023/10/08 11:18:57;;;;;;;;;;;;;;;27.18;43.24;95264.44;5046151;28;8173;-65
2023/10/08 11:21:33;;;;;;;;;;;;;;;27.21;42.87;95272.47;5069271;28;7828;-65
2023/10/08 11:24:27;;;;;;;;;;;;;;;27.21;43.54;95266.19;5072690;28;7063;-65
2023/10/08 11:27:15;;;;;;;;;;;;;;;27.21;43.01;95271.72;5083467;28;7007;-66
2023/10/08 11:29:47;;;;;;;;;;;;;;;27.20;43.10;95265.44;5055554;28;8637;-65
2023/10/08 11:32:48;;;;;;;;;;;;;;;27.21;42.91;95264.16;5076179;28;7184;-65
2023/10/08 11:35:17;;;;;;;;;;;;;;;27.21;43.06;95261.41;5004314;28;7099;-65
2023/10/08 11:38:03;;;;;;;;;;;;;;;27.25;42.88;95261.19;5019082;28;7138;-65
2023/10/08 11:40:56;;;;;;;;;;;;;;;27.25;43.16;95256.38;5027843;28;9453;-65
2023/10/08 11:43:35;;;;;;;;;;;;;;;27.24;43.18;95257.66;5028781;28;7274;-65
2023/10/08 11:46:04;;;;;;;;;;;;;;;27.27;43.20;95250.38;5010541;28;9067;-65
2023/10/08 11:48:38;;;;;;;;;;;;;;;27.22;43.10;95251.88;5011365;28;8874;-65
2023/10/08 11:51:05;;;;;;;;;;;;;;;27.28;42.94;95249.88;5012099;28;7973;-65
2023/10/08 11:54:02;;;;;;;;;;;;;;;27.30;42.99;95249.34;5023531;28;7671;-65
2023/10/08 11:56:39;;;;;;;;;;;;;;;27.32;43.15;95238.56;5017914;28;7322;-65
2023/10/08 11:59:25;;;;;;;;;;;;;;;27.35;43.20;95240.31;5028954;28;8431;-65
2023/10/08 12:01:52;;;;;;;;;;;;;;;27.36;42.83;95242.59;5016087;28;7302;-65
2023/10/08 12:04:22;;;;;;;;;;;;;;;27.36;42.89;95236.34;5007798;28;7286;-65
2023/10/08 12:07:01;;;;;;;;;;;;;;;27.36;43.01;95239.84;5012157;28;7245;-65
2023/10/08 12:09:39;;;;;;;;;;;;;;;27.39;43.09;95233.31;5008785;28;7254;-65
2023/10/08 12:12:18;;;;;;;;;;;;;;;27.41;42.94;95230.81;5070512;28;7084;-65
2023/10/08 12:14:54;;;;;;;;;;;;;;;27.40;42.92;95226.56;5059068;28;7024;-65
2023/10/08 12:20:48;;;;;;;;;;;;;;;27.50;43.05;95227.81;4986455;28;7073;-65
2023/10/08 12:23:26;;;;;;;;;;;;;;;27.50;42.70;95213.97;5005648;28;7508;-63
2023/10/08 12:25:57;;;;;;;;;;;;;;;27.51;43.15;95221.00;4991840;28;7524;-63
2023/10/08 12:28:36;;;;;;;;;;;;;;;27.53;42.83;95212.22;5007096;28;7330;-63
2023/10/08 12:31:05;;;;;;;;;;;;;;;27.53;43.03;95217.75;4981096;28;8978;-63
2023/10/08 12:33:34;;;;;;;;;;;;;;;27.55;42.47;95216.00;4994392;28;7177;-63
2023/10/08 12:36:10;;;;;;;;;;;;;;;27.56;43.10;95217.50;4988845;28;7254;-63
2023/10/08 12:38:58;;;;;;;;;;;;;;;27.55;43.00;95207.72;4986277;28;6998;-63
2023/10/08 12:41:38;;;;;;;;;;;;;;;27.58;42.89;95208.69;4992908;28;7893;-63
2023/10/08 12:44:24;;;;;;;;;;;;;;;27.62;42.33;95215.47;4997329;28;7208;-63
2023/10/08 12:46:52;;;;;;;;;;;;;;;27.64;42.75;95215.72;4974489;28;7257;-63
2023/10/08 12:49:22;;;;;;;;;;;;;;;27.67;42.87;95215.97;4978356;28;7398;-63
2023/10/08 12:51:52;;;;;;;;;;;;;;;27.67;42.30;95211.19;4980965;28;7359;-63
2023/10/08 12:54:22;;;;;;;;;;;;;;;27.69;42.84;95213.47;4976043;28;7245;-63
2023/10/08 12:56:58;;;;;;;;;;;;;;;27.71;42.85;95213.72;5043816;28;7244;-63
2023/10/08 12:59:24;;;;;;;;;;;;;;;27.71;42.30;95205.41;5066890;28;9090;-63
2023/10/08 13:02:19;;;;;;;;;;;;;;;27.75;42.88;95208.69;5056022;28;9270;-63
2023/10/08 13:04:57;;;;;;;;;;;;;;;27.78;43.02;95204.88;5022316;28;8270;-63
2023/10/08 13:07:26;;;;;;;;;;;;;;;27.80;42.78;95202.38;5014166;28;7274;-63
2023/10/08 13:09:53;;;;;;;;;;;;;;;27.81;42.89;95201.88;5016341;28;7059;-63
2023/10/08 13:12:21;;;;;;;;;;;;;;;27.81;42.75;95198.34;5037800;28;7193;-63
2023/10/08 13:15:06;;;;;;;;;;;;;;;27.82;42.82;95192.31;5005388;28;7637;-63
2023/10/08 13:17:52;;;;;;;;;;;;;;;27.86;42.43;95190.03;5015955;28;7246;-63
2023/10/08 13:20:32;;;;;;;;;;;;;;;27.89;42.45;95188.28;5031893;28;7230;-63
2023/10/08 13:23:00;;;;;;;;;;;;;;;27.91;42.31;95186.50;5020541;28;9185;-63
2023/10/08 13:25:32;;;;;;;;;;;;;;;27.94;42.15;95181.97;5016506;28;9366;-63
2023/10/08 13:28:28;;;;;;;;;;;;;;;27.95;42.59;95183.50;5010244;28;7237;-63
2023/10/08 13:30:54;;;;;;;;;;;;;;;27.97;42.52;95183.75;5016066;28;7248;-63
2023/10/08 13:33:23;;;;;;;;;;;;;;;28.00;42.84;95177.22;5014074;28;7701;-56
2023/10/08 13:36:03;;;;;;;;;;;;;;;27.97;42.65;95173.44;5013825;28;7872;-57
2023/10/08 13:38:31;;;;;;;;;;;;;;;27.99;42.95;95170.19;5010014;28;7084;-57
2023/10/08 13:41:14;;;;;;;;;;;;;;;27.99;42.65;95172.94;5024042;28;7721;-57
2023/10/08 13:43:51;;;;;;;;;;;;;;;28.03;42.29;95170.66;5065369;28;7259;-56
2023/10/08 13:46:26;;;;;;;;;;;;;;;28.06;42.83;95166.88;5080513;28;8975;-56
2023/10/08 13:48:53;;;;;;;;;;;;;;;28.06;42.31;95166.88;5055957;28;9078;-56
2023/10/08 13:51:26;;;;;;;;;;;;;;;28.08;42.18;95158.81;5085642;28;9483;-56
2023/10/08 13:53:59;;;;;;;;;;;;;;;28.09;43.00;95157.56;5063528;28;7152;-56
2023/10/08 13:57:01;;;;;;;;;;;;;;;28.14;42.44;95157.53;5059411;28;7980;-57
2023/10/08 13:59:38;;;;;;;;;;;;;;;28.13;41.85;95153.28;5011557;28;7981;-56
2023/10/08 14:02:21;;;;;;;;;;;;;;;28.18;42.20;95148.97;5018019;28;7513;-56
2023/10/08 14:05:08;;;;;;;;;;;;;;;28.20;42.80;95143.69;5032648;28;7200;-57
2023/10/08 14:07:38;;;;;;;;;;;;;;;28.22;42.26;95149.47;5026101;28;8065;-57
2023/10/08 14:10:29;;;;;;;;;;;;;;;28.24;42.77;95144.16;5015749;28;7279;-57
2023/10/08 14:13:11;;;;;;;;;;;;;;;28.25;42.65;95143.66;5012422;28;8683;-56
2023/10/08 14:15:44;;;;;;;;;;;;;;;28.28;42.45;95147.41;5016143;28;7070;-56
2023/10/08 14:18:17;;;;;;;;;;;;;;;28.28;42.15;95142.63;5034771;28;7049;-57
2023/10/08 14:20:46;;;;;;;;;;;;;;;28.32;42.45;95153.44;5032045;28;8733;-57
2023/10/08 14:23:16;;;;;;;;;;;;;;;28.33;42.35;95146.66;5018934;28;7354;-56
2023/10/08 14:25:49;;;;;;;;;;;;;;;28.33;42.64;95150.16;5011991;28;7397;-57
2023/10/08 14:28:39;;;;;;;;;;;;;;;28.36;42.43;95149.13;5032510;28;7407;-56
2023/10/08 14:31:07;;;;;;;;;;;;;;;28.40;42.37;95151.66;5012189;28;9040;-56
2023/10/08 14:33:41;;;;;;;;;;;;;;;28.43;41.90;95153.38;5044307;28;8135;-56
2023/10/08 14:44:34;;;;;;;;;;;;;;;28.60;41.70;95162.34;5071854;28;8896;-56
2023/10/08 14:47:00;;;;;;;;;;;;;;;28.62;41.64;95164.63;5061028;28;7014;-57
2023/10/08 14:49:35;;;;;;;;;;;;;;;28.67;41.20;95166.59;5039016;28;6978;-57
2023/10/08 14:52:05;;;;;;;;;;;;;;;28.69;41.10;95167.59;5060890;28;7239;-56
2023/10/08 14:54:34;;;;;;;;;;;;;;;28.71;42.04;95165.06;5061336;28;9534;-57